Time;durP1;ratioP1;P1;durP2;ratioP2;P2;SDS_P1;SDS_P2;PMS_P1;PMS_P2;Temp;Humidity;BMP_temperature;BMP_pressure;BME280_temperature;BME280_humidity;BME280_pressure;Samples;Min_cycle;Max_cycle;Signal;HPM_P1;HPM_P2
2022/05/17 00:02:05;;;;;;;0.20;0.20;;;;;;;;;;1819205;78;26263;-50
2022/05/17 00:04:33;;;;;;;0.10;0.10;;;;;;;;;;1822660;78;26286;-48
2022/05/17 00:07:01;;;;;;;0.20;0.20;;;;;;;;;;1820625;78;26228;-50
2022/05/17 00:09:29;;;;;;;0.47;0.30;;;;;;;;;;1805775;78;26815;-54
2022/05/17 00:11:57;;;;;;;0.20;0.20;;;;;;;;;;1808537;79;26317;-56
2022/05/17 00:14:25;;;;;;;0.68;0.30;;;;;;;;;;1776468;79;26317;-52
2022/05/17 00:16:53;;;;;;;0.20;0.20;;;;;;;;;;1822339;78;26353;-47
2022/05/17 00:19:21;;;;;;;0.20;0.20;;;;;;;;;;1808229;79;26283;-47
2022/05/17 00:21:49;;;;;;;0.10;0.10;;;;;;;;;;1807847;78;26345;-53
2022/05/17 00:24:18;;;;;;;0.33;0.33;;;;;;;;;;1786541;79;26345;-53
2022/05/17 00:26:45;;;;;;;0.20;0.20;;;;;;;;;;1822672;78;26306;-49
2022/05/17 00:29:13;;;;;;;0.28;0.28;;;;;;;;;;1822215;78;26264;-54
2022/05/17 00:31:40;;;;;;;0.30;0.30;;;;;;;;;;1818321;78;26369;-47
2022/05/17 00:34:07;;;;;;;0.53;0.20;;;;;;;;;;1808969;78;26287;-48
2022/05/17 00:36:35;;;;;;;0.35;0.35;;;;;;;;;;1781499;80;27410;-51
2022/05/17 00:39:02;;;;;;;0.20;0.20;;;;;;;;;;1813554;79;26204;-49
2022/05/17 00:41:29;;;;;;;0.25;0.25;;;;;;;;;;1813046;78;26341;-52
2022/05/17 00:46:53;;;;;;;0.40;0.30;;;;;;;;;;1810219;78;26376;-52
2022/05/17 00:49:31;;;;;;;0.10;0.10;;;;;;;;;;1792695;79;25783;-52
2022/05/17 00:52:00;;;;;;;0.20;0.20;;;;;;;;;;1812595;79;26743;-51
2022/05/17 00:54:28;;;;;;;0.20;0.20;;;;;;;;;;1794081;79;26291;-50
2022/05/17 00:56:57;;;;;;;1.17;0.20;;;;;;;;;;1766962;80;26289;-49
2022/05/17 00:59:25;;;;;;;0.47;0.20;;;;;;;;;;1812085;78;26377;-55
2022/05/17 01:01:53;;;;;;;0.20;0.20;;;;;;;;;;1813207;79;26323;-48
2022/05/17 01:04:22;;;;;;;0.20;0.20;;;;;;;;;;1813715;79;26283;-52
2022/05/17 01:06:54;;;;;;;0.28;0.28;;;;;;;;;;1799265;79;26292;-49
2022/05/17 01:09:22;;;;;;;0.30;0.30;;;;;;;;;;1785186;79;26338;-52
2022/05/17 01:11:50;;;;;;;0.20;0.20;;;;;;;;;;1779730;80;26810;-55
2022/05/17 01:17:02;;;;;;;0.20;0.20;;;;;;;;;;1813458;79;26322;-49
2022/05/17 01:19:30;;;;;;;0.20;0.20;;;;;;;;;;1813346;79;26353;-52
2022/05/17 01:21:57;;;;;;;0.88;0.10;;;;;;;;;;1817633;78;26919;-53
2022/05/17 01:24:27;;;;;;;0.10;0.10;;;;;;;;;;1847191;77;26268;-46
2022/05/17 01:27:02;;;;;;;0.20;0.20;;;;;;;;;;1859100;76;27407;-49
2022/05/17 01:29:31;;;;;;;0.53;0.20;;;;;;;;;;1813177;79;26655;-51
2022/05/17 01:31:58;;;;;;;0.10;0.10;;;;;;;;;;1812016;79;26253;-51
2022/05/17 01:34:25;;;;;;;0.10;0.10;;;;;;;;;;1799424;78;26347;-50
2022/05/17 01:36:53;;;;;;;0.30;0.30;;;;;;;;;;1846039;77;26388;-53
2022/05/17 01:39:21;;;;;;;0.20;0.20;;;;;;;;;;1810449;79;26389;-53
2022/05/17 01:41:48;;;;;;;0.30;0.30;;;;;;;;;;1808704;79;26829;-54
2022/05/17 01:44:15;;;;;;;0.30;0.30;;;;;;;;;;1814433;79;26268;-95
2022/05/17 01:46:43;;;;;;;0.20;0.20;;;;;;;;;;1772646;80;26308;-52
2022/05/17 01:49:10;;;;;;;0.23;0.23;;;;;;;;;;1832802;77;26284;-52
2022/05/17 01:51:38;;;;;;;0.20;0.20;;;;;;;;;;1808238;79;26399;-51
2022/05/17 01:54:05;;;;;;;0.20;0.20;;;;;;;;;;1813485;79;26307;-52
2022/05/17 01:56:33;;;;;;;0.30;0.30;;;;;;;;;;1813490;78;26751;-51
2022/05/17 01:59:01;;;;;;;0.20;0.20;;;;;;;;;;1785823;79;26302;-51
2022/05/17 02:01:29;;;;;;;0.37;0.37;;;;;;;;;;1813203;78;26760;-52
2022/05/17 02:03:56;;;;;;;0.30;0.30;;;;;;;;;;1805833;79;26361;-50
2022/05/17 02:06:24;;;;;;;0.15;0.15;;;;;;;;;;1808772;79;26334;-51
2022/05/17 02:08:52;;;;;;;0.30;0.30;;;;;;;;;;1781434;79;26638;-53
2022/05/17 02:11:19;;;;;;;0.33;0.33;;;;;;;;;;1847723;76;26331;-48
2022/05/17 02:13:46;;;;;;;0.33;0.30;;;;;;;;;;1813658;79;26473;-49
2022/05/17 02:16:14;;;;;;;0.20;0.20;;;;;;;;;;1813448;79;26368;-55
2022/05/17 02:18:41;;;;;;;0.20;0.20;;;;;;;;;;1785106;79;26317;-51
2022/05/17 02:21:09;;;;;;;0.28;0.28;;;;;;;;;;1815627;79;26287;-51
2022/05/17 02:23:36;;;;;;;0.30;0.30;;;;;;;;;;1813580;79;26378;-54
2022/05/17 02:26:03;;;;;;;0.40;0.40;;;;;;;;;;1813417;79;26349;-52
2022/05/17 02:28:30;;;;;;;0.30;0.30;;;;;;;;;;1813685;79;26377;-47
2022/05/17 02:30:58;;;;;;;0.40;0.40;;;;;;;;;;1812346;79;26278;-49
2022/05/17 02:33:26;;;;;;;0.33;0.33;;;;;;;;;;1811858;78;26337;-50
2022/05/17 02:35:53;;;;;;;0.47;0.30;;;;;;;;;;1813565;79;26337;-52
2022/05/17 02:38:20;;;;;;;0.37;0.37;;;;;;;;;;1802567;78;26354;-52
2022/05/17 02:40:47;;;;;;;0.35;0.35;;;;;;;;;;1781466;79;26320;-48
2022/05/17 02:43:16;;;;;;;0.47;0.47;;;;;;;;;;1813652;78;26294;-51
2022/05/17 02:45:43;;;;;;;0.50;0.50;;;;;;;;;;1825755;78;26765;-49
2022/05/17 02:48:11;;;;;;;0.50;0.50;;;;;;;;;;1824230;77;27215;-53
2022/05/17 02:50:38;;;;;;;0.40;0.40;;;;;;;;;;1821992;78;26285;-50
2022/05/17 02:53:06;;;;;;;0.50;0.50;;;;;;;;;;1800941;78;26318;-48
2022/05/17 02:55:33;;;;;;;0.68;0.68;;;;;;;;;;1818593;78;26283;-47
2022/05/17 02:58:00;;;;;;;0.70;0.70;;;;;;;;;;1814622;79;26318;-50
2022/05/17 03:00:28;;;;;;;0.60;0.60;;;;;;;;;;1813576;79;26396;-52
2022/05/17 03:02:55;;;;;;;0.70;0.70;;;;;;;;;;1803065;79;26838;-49
2022/05/17 03:05:22;;;;;;;1.00;0.70;;;;;;;;;;1804968;79;26287;-51
2022/05/17 03:07:49;;;;;;;0.70;0.70;;;;;;;;;;1814123;79;26294;-50
2022/05/17 03:10:17;;;;;;;0.80;0.80;;;;;;;;;;1814323;78;26426;-47
2022/05/17 03:12:45;;;;;;;0.82;0.82;;;;;;;;;;1814744;79;26289;-50
2022/05/17 03:15:14;;;;;;;0.80;0.80;;;;;;;;;;1814543;79;26274;-49
2022/05/17 03:17:42;;;;;;;0.93;0.93;;;;;;;;;;1799985;79;26303;-51
2022/05/17 03:20:10;;;;;;;0.70;0.70;;;;;;;;;;1808649;79;26267;-52
2022/05/17 03:22:38;;;;;;;0.65;0.65;;;;;;;;;;1809764;79;26444;-49
2022/05/17 03:25:06;;;;;;;0.80;0.80;;;;;;;;;;1814161;79;26263;-48
2022/05/17 03:27:33;;;;;;;0.80;0.80;;;;;;;;;;1813074;79;26361;-50
2022/05/17 03:30:00;;;;;;;0.78;0.78;;;;;;;;;;1814301;79;26294;-49
2022/05/17 03:32:27;;;;;;;0.80;0.80;;;;;;;;;;1811286;78;26798;-52
2022/05/17 03:34:55;;;;;;;0.78;0.78;;;;;;;;;;1814668;79;26829;-51
2022/05/17 03:37:22;;;;;;;0.70;0.70;;;;;;;;;;1811297;79;26278;-48
2022/05/17 03:39:51;;;;;;;0.80;0.80;;;;;;;;;;1797605;78;26301;-49
2022/05/17 03:42:19;;;;;;;0.85;0.85;;;;;;;;;;1810647;79;26283;-52
2022/05/17 03:44:46;;;;;;;0.65;0.65;;;;;;;;;;1810452;79;26778;-55
2022/05/17 03:47:14;;;;;;;0.57;0.57;;;;;;;;;;1808111;79;26282;-52
2022/05/17 03:49:42;;;;;;;4.42;0.75;;;;;;;;;;1813784;79;26648;-51
2022/05/17 03:52:09;;;;;;;0.90;0.60;;;;;;;;;;1812679;79;26309;-53
2022/05/17 03:54:38;;;;;;;0.72;0.72;;;;;;;;;;1813923;79;27866;-52
2022/05/17 03:57:06;;;;;;;0.80;0.80;;;;;;;;;;1804579;79;26295;-49
2022/05/17 03:59:33;;;;;;;0.75;0.70;;;;;;;;;;1809753;79;26592;-52
2022/05/17 04:02:01;;;;;;;0.70;0.70;;;;;;;;;;1784467;79;26337;-50
2022/05/17 04:04:28;;;;;;;0.70;0.70;;;;;;;;;;1816712;78;26266;-51
2022/05/17 04:06:55;;;;;;;0.55;0.55;;;;;;;;;;1822293;78;26806;-52
2022/05/17 04:09:23;;;;;;;0.68;0.68;;;;;;;;;;1820952;77;26314;-52
2022/05/17 04:11:50;;;;;;;0.70;0.70;;;;;;;;;;1793040;79;26371;-49
2022/05/17 04:14:17;;;;;;;0.70;0.70;;;;;;;;;;1822378;78;26275;-49
2022/05/17 04:16:44;;;;;;;0.53;0.50;;;;;;;;;;1807731;77;26285;-46
2022/05/17 04:19:15;;;;;;;0.50;0.50;;;;;;;;;;1822771;77;26255;-53
2022/05/17 04:21:41;;;;;;;0.70;0.70;;;;;;;;;;1782349;79;26290;-48
2022/05/17 04:24:08;;;;;;;1.72;0.50;;;;;;;;;;1825820;77;26325;-49
2022/05/17 04:26:36;;;;;;;0.70;0.70;;;;;;;;;;1789324;79;26286;-49
2022/05/17 04:29:04;;;;;;;0.35;0.35;;;;;;;;;;1784134;80;26330;-52
2022/05/17 04:31:31;;;;;;;0.70;0.70;;;;;;;;;;1802737;78;26302;-49
2022/05/17 04:33:59;;;;;;;0.93;0.53;;;;;;;;;;1822532;78;26318;-52
2022/05/17 04:36:26;;;;;;;0.60;0.60;;;;;;;;;;1789327;79;26345;-54
2022/05/17 04:38:53;;;;;;;0.50;0.50;;;;;;;;;;1795979;78;26820;-52
2022/05/17 04:41:21;;;;;;;0.60;0.60;;;;;;;;;;1802922;79;27292;-51
2022/05/17 04:43:48;;;;;;;0.60;0.60;;;;;;;;;;1835722;77;26262;-48
2022/05/17 04:46:16;;;;;;;0.57;0.50;;;;;;;;;;1847256;77;26398;-49
2022/05/17 04:48:43;;;;;;;1.10;0.70;;;;;;;;;;1851026;76;26295;-48
2022/05/17 04:51:11;;;;;;;0.50;0.50;;;;;;;;;;1846570;76;26248;-49
2022/05/17 04:53:39;;;;;;;0.60;0.60;;;;;;;;;;1813794;79;26364;-49
2022/05/17 04:56:08;;;;;;;1.50;0.65;;;;;;;;;;1793158;79;26310;-48
2022/05/17 04:58:36;;;;;;;0.60;0.50;;;;;;;;;;1843545;77;26276;-49
2022/05/17 05:01:04;;;;;;;1.10;0.40;;;;;;;;;;1813699;79;26731;-52
2022/05/17 05:03:31;;;;;;;0.80;0.35;;;;;;;;;;1813814;79;26275;-47
2022/05/17 05:05:59;;;;;;;0.70;0.70;;;;;;;;;;1813619;79;26275;-52
2022/05/17 05:08:26;;;;;;;0.45;0.45;;;;;;;;;;1812414;79;26339;-51
2022/05/17 05:10:53;;;;;;;0.62;0.50;;;;;;;;;;1815447;78;26259;-47
2022/05/17 05:13:22;;;;;;;3.37;0.50;;;;;;;;;;1811925;78;26299;-47
2022/05/17 05:15:51;;;;;;;0.50;0.50;;;;;;;;;;1813545;79;26275;-51
2022/05/17 05:18:18;;;;;;;0.50;0.50;;;;;;;;;;1813415;79;26653;-48
2022/05/17 05:20:45;;;;;;;0.30;0.30;;;;;;;;;;1813557;79;26357;-49
2022/05/17 05:23:13;;;;;;;0.60;0.60;;;;;;;;;;1813694;78;26290;-52
2022/05/17 05:25:40;;;;;;;1.62;0.53;;;;;;;;;;1775638;80;26292;-47
2022/05/17 05:28:09;;;;;;;0.33;0.33;;;;;;;;;;1813664;79;26335;-50
2022/05/17 05:30:37;;;;;;;0.42;0.42;;;;;;;;;;1813087;79;26267;-50
2022/05/17 05:33:05;;;;;;;0.72;0.40;;;;;;;;;;1805054;79;26357;-50
2022/05/17 05:35:33;;;;;;;0.60;0.60;;;;;;;;;;1813498;79;26271;-51
2022/05/17 05:38:02;;;;;;;0.40;0.40;;;;;;;;;;1813586;78;26867;-49
2022/05/17 05:40:30;;;;;;;0.47;0.47;;;;;;;;;;1834404;76;26502;-49
2022/05/17 05:42:58;;;;;;;1.75;0.47;;;;;;;;;;1848042;77;26313;-50
2022/05/17 05:45:25;;;;;;;0.40;0.40;;;;;;;;;;1849373;77;26668;-46
2022/05/17 05:47:53;;;;;;;0.40;0.40;;;;;;;;;;1847541;77;26246;-48
2022/05/17 05:50:20;;;;;;;0.65;0.40;;;;;;;;;;1859506;76;26347;-47
2022/05/17 05:52:48;;;;;;;1.32;0.40;;;;;;;;;;1861571;76;26364;-49
2022/05/17 05:55:17;;;;;;;0.37;0.30;;;;;;;;;;1830923;77;26253;-47
2022/05/17 05:57:44;;;;;;;1.25;0.30;;;;;;;;;;1810171;78;26258;-49
2022/05/17 06:00:12;;;;;;;0.40;0.40;;;;;;;;;;1798057;78;26275;-47
2022/05/17 06:02:40;;;;;;;0.50;0.50;;;;;;;;;;1793822;79;26525;-51
2022/05/17 06:05:08;;;;;;;0.42;0.42;;;;;;;;;;1807865;79;26259;-48
2022/05/17 06:07:35;;;;;;;0.40;0.40;;;;;;;;;;1807103;79;26268;-48
2022/05/17 06:10:06;;;;;;;0.30;0.30;;;;;;;;;;1807390;78;26323;-48
2022/05/17 06:12:34;;;;;;;0.40;0.40;;;;;;;;;;1798978;78;26357;-49
2022/05/17 06:15:01;;;;;;;0.30;0.30;;;;;;;;;;1789272;79;26313;-48
2022/05/17 06:17:28;;;;;;;0.40;0.40;;;;;;;;;;1797610;79;26677;-50
2022/05/17 06:19:57;;;;;;;0.78;0.33;;;;;;;;;;1813495;79;26279;-47
2022/05/17 06:22:25;;;;;;;2.33;0.45;;;;;;;;;;1813631;79;26730;-50
2022/05/17 06:24:53;;;;;;;2.08;0.40;;;;;;;;;;1809669;79;26295;-47
2022/05/17 06:27:20;;;;;;;0.40;0.40;;;;;;;;;;1836530;77;26908;-47
2022/05/17 06:29:48;;;;;;;0.28;0.25;;;;;;;;;;1812776;79;26260;-46
2022/05/17 06:32:16;;;;;;;0.30;0.30;;;;;;;;;;1811880;78;26288;-51
2022/05/17 06:34:45;;;;;;;0.30;0.30;;;;;;;;;;1783709;79;26754;-49
2022/05/17 06:37:12;;;;;;;0.42;0.37;;;;;;;;;;1803420;79;26722;-51
2022/05/17 06:39:40;;;;;;;0.25;0.25;;;;;;;;;;1803395;79;26320;-51
2022/05/17 06:42:08;;;;;;;1.55;0.30;;;;;;;;;;1848165;77;26932;-46
2022/05/17 06:44:37;;;;;;;0.55;0.40;;;;;;;;;;1854350;76;26672;-46
2022/05/17 06:47:05;;;;;;;0.60;0.40;;;;;;;;;;1813765;79;26294;-52
2022/05/17 06:49:33;;;;;;;0.47;0.47;;;;;;;;;;1812773;79;26287;-48
2022/05/17 06:52:03;;;;;;;0.40;0.40;;;;;;;;;;1803022;78;26325;-48
2022/05/17 06:54:31;;;;;;;0.40;0.30;;;;;;;;;;1813273;78;27462;-48
2022/05/17 06:56:59;;;;;;;1.35;0.30;;;;;;;;;;1842269;77;26220;-49
2022/05/17 06:59:28;;;;;;;0.30;0.30;;;;;;;;;;1811977;79;26342;-51
2022/05/17 07:01:56;;;;;;;0.28;0.28;;;;;;;;;;1813685;79;26274;-48
2022/05/17 07:04:23;;;;;;;0.30;0.30;;;;;;;;;;1806807;79;26254;-45
2022/05/17 07:06:50;;;;;;;0.50;0.50;;;;;;;;;;1809397;79;27431;-49
2022/05/17 07:09:22;;;;;;;0.30;0.30;;;;;;;;;;1813261;78;26309;-47
2022/05/17 07:14:32;;;;;;;0.30;0.30;;;;;;;;;;1799184;78;26295;-50
2022/05/17 07:16:59;;;;;;;0.40;0.40;;;;;;;;;;1811259;78;26296;-45
2022/05/17 07:19:27;;;;;;;0.30;0.30;;;;;;;;;;1813742;79;26325;-51
2022/05/17 07:21:54;;;;;;;0.30;0.30;;;;;;;;;;1813697;79;26282;-47
2022/05/17 07:24:21;;;;;;;0.28;0.28;;;;;;;;;;1812443;79;26311;-46
2022/05/17 07:26:49;;;;;;;0.30;0.30;;;;;;;;;;1798502;79;26330;-48
2022/05/17 07:29:16;;;;;;;0.40;0.30;;;;;;;;;;1813817;79;26267;-51
2022/05/17 07:31:43;;;;;;;0.30;0.30;;;;;;;;;;1804361;79;26310;-50
2022/05/17 07:34:10;;;;;;;0.37;0.37;;;;;;;;;;1813802;79;26349;-46
2022/05/17 07:36:38;;;;;;;0.20;0.20;;;;;;;;;;1813668;79;26282;-49
2022/05/17 07:39:06;;;;;;;0.40;0.40;;;;;;;;;;1807998;79;26561;-46
2022/05/17 07:41:34;;;;;;;1.75;0.33;;;;;;;;;;1802267;78;26783;-48
2022/05/17 07:44:02;;;;;;;0.30;0.30;;;;;;;;;;1806919;79;26353;-49
2022/05/17 07:46:30;;;;;;;1.00;0.60;;;;;;;;;;1806335;79;26359;-44
2022/05/17 07:48:57;;;;;;;6.20;0.30;;;;;;;;;;1813621;79;26600;-50
2022/05/17 07:51:25;;;;;;;0.40;0.40;;;;;;;;;;1813702;79;26325;-52
2022/05/17 07:53:52;;;;;;;1.98;0.30;;;;;;;;;;1813852;79;26323;-49
2022/05/17 07:56:19;;;;;;;1.07;0.35;;;;;;;;;;1814875;79;26290;-52
2022/05/17 07:58:47;;;;;;;0.50;0.28;;;;;;;;;;1849800;77;26279;-53
2022/05/17 08:01:14;;;;;;;1.55;0.40;;;;;;;;;;1813908;79;26382;-49
2022/05/17 08:03:42;;;;;;;1.45;0.40;;;;;;;;;;1798239;78;26333;-48
2022/05/17 08:06:09;;;;;;;0.30;0.30;;;;;;;;;;1815643;77;26647;-49
2022/05/17 08:08:37;;;;;;;0.30;0.30;;;;;;;;;;1847735;76;26354;-48
2022/05/17 08:11:05;;;;;;;0.20;0.20;;;;;;;;;;1811834;77;26311;-45
2022/05/17 08:13:33;;;;;;;0.20;0.20;;;;;;;;;;1839501;76;26948;-51
2022/05/17 08:16:01;;;;;;;0.30;0.30;;;;;;;;;;1846532;76;26791;-47
2022/05/17 08:18:28;;;;;;;0.30;0.30;;;;;;;;;;1814851;77;26254;-51
2022/05/17 08:20:55;;;;;;;1.07;0.45;;;;;;;;;;1819645;78;26626;-44
2022/05/17 08:23:23;;;;;;;0.20;0.20;;;;;;;;;;1824328;78;26259;-49
2022/05/17 08:28:35;;;;;;;1.55;0.40;;;;;;;;;;1812994;79;26324;-52
2022/05/17 08:31:03;;;;;;;0.65;0.33;;;;;;;;;;1810707;77;26783;-50
2022/05/17 08:33:30;;;;;;;2.08;0.35;;;;;;;;;;1847000;76;26917;-49
2022/05/17 08:36:01;;;;;;;0.95;0.23;;;;;;;;;;1847953;76;26246;-53
2022/05/17 08:38:30;;;;;;;1.20;0.30;;;;;;;;;;1811944;79;26325;-47
2022/05/17 08:41:08;;;;;;;0.55;0.33;;;;;;;;;;1824922;77;26385;-57
2022/05/17 08:43:43;;;;;;;0.30;0.30;;;;;;;;;;1847169;77;26471;-47
2022/05/17 08:46:26;;;;;;;0.47;0.30;;;;;;;;;;1800631;79;26929;-52
2022/05/17 08:48:56;;;;;;;0.28;0.15;;;;;;;;;;1840857;76;26296;-57
2022/05/17 08:51:27;;;;;;;0.30;0.30;;;;;;;;;;1847665;76;26252;-54
2022/05/17 08:53:54;;;;;;;0.20;0.20;;;;;;;;;;1810716;79;26291;-57
2022/05/17 08:56:22;;;;;;;0.20;0.20;;;;;;;;;;1811998;78;26268;-51
2022/05/17 08:58:51;;;;;;;0.35;0.30;;;;;;;;;;1813647;79;26271;-51
2022/05/17 09:01:19;;;;;;;0.30;0.30;;;;;;;;;;1802609;79;26299;-58
2022/05/17 09:04:00;;;;;;;0.30;0.30;;;;;;;;;;1812541;79;26361;-51
2022/05/17 09:06:32;;;;;;;0.35;0.23;;;;;;;;;;1811624;79;26325;-48
2022/05/17 09:09:04;;;;;;;0.28;0.28;;;;;;;;;;1809076;78;26294;-46
2022/05/17 09:11:33;;;;;;;0.20;0.20;;;;;;;;;;1808135;79;26345;-46
2022/05/17 09:14:04;;;;;;;0.28;0.28;;;;;;;;;;1813286;79;26364;-49
2022/05/17 09:16:33;;;;;;;0.30;0.30;;;;;;;;;;1813204;79;26291;-54
2022/05/17 09:19:01;;;;;;;0.30;0.30;;;;;;;;;;1813416;79;26245;-53
2022/05/17 09:21:35;;;;;;;0.30;0.30;;;;;;;;;;1782322;79;26278;-49
2022/05/17 09:24:04;;;;;;;0.40;0.40;;;;;;;;;;1845622;76;26350;-51
2022/05/17 09:26:33;;;;;;;0.33;0.30;;;;;;;;;;1833816;76;25787;-46
2022/05/17 09:29:18;;;;;;;1.12;0.30;;;;;;;;;;1844875;77;26253;-46
2022/05/17 09:32:02;;;;;;;0.30;0.30;;;;;;;;;;1838685;77;26288;-44
2022/05/17 09:34:33;;;;;;;0.30;0.30;;;;;;;;;;1811858;79;26728;-45
2022/05/17 09:37:02;;;;;;;0.30;0.30;;;;;;;;;;1809458;79;26282;-46
2022/05/17 09:39:30;;;;;;;0.28;0.28;;;;;;;;;;1808470;78;26224;-51
2022/05/17 09:41:59;;;;;;;1.45;0.30;;;;;;;;;;1813483;78;26748;-49
2022/05/17 09:44:28;;;;;;;0.30;0.30;;;;;;;;;;1812095;79;26264;-43
2022/05/17 09:47:00;;;;;;;0.30;0.30;;;;;;;;;;1806448;79;26313;-47
2022/05/17 09:55:21;;;;;;;0.37;0.37;;;;;;;;;;1830096;77;26827;-49
2022/05/17 09:57:56;;;;;;;0.40;0.33;;;;;;;;;;1811892;79;26740;-53
2022/05/17 10:00:25;;;;;;;0.40;0.30;;;;;;;;;;1814807;78;26306;-49
2022/05/17 10:02:57;;;;;;;0.30;0.30;;;;;;;;;;1847942;77;26383;-46
2022/05/17 10:05:29;;;;;;;0.40;0.40;;;;;;;;;;1818047;78;26306;-46
2022/05/17 10:07:58;;;;;;;0.33;0.30;;;;;;;;;;1828898;78;26337;-59
2022/05/17 10:10:27;;;;;;;0.20;0.20;;;;;;;;;;1845143;76;26358;-52
2022/05/17 10:12:56;;;;;;;1.40;0.30;;;;;;;;;;1835488;76;28194;-52
2022/05/17 10:15:26;;;;;;;0.30;0.30;;;;;;;;;;1846694;77;26729;-52
2022/05/17 10:17:55;;;;;;;0.30;0.30;;;;;;;;;;1838793;76;26173;-50
2022/05/17 10:20:27;;;;;;;0.25;0.25;;;;;;;;;;1847249;77;26264;-54
2022/05/17 10:22:59;;;;;;;0.30;0.30;;;;;;;;;;1851304;76;26220;-49
2022/05/17 10:25:28;;;;;;;0.40;0.40;;;;;;;;;;1845194;77;26679;-55
2022/05/17 10:27:57;;;;;;;0.30;0.30;;;;;;;;;;1836912;77;26208;-48
2022/05/17 10:30:29;;;;;;;0.30;0.30;;;;;;;;;;1812350;79;26374;-48
2022/05/17 10:32:59;;;;;;;2.02;0.30;;;;;;;;;;1807067;79;26763;-54
2022/05/17 10:35:33;;;;;;;0.50;0.50;;;;;;;;;;1779237;79;26313;-53
2022/05/17 10:38:02;;;;;;;1.70;0.72;;;;;;;;;;1799364;78;26353;-50
2022/05/17 10:40:31;;;;;;;0.30;0.30;;;;;;;;;;1847484;77;26672;-49
2022/05/17 10:43:00;;;;;;;0.40;0.40;;;;;;;;;;1847950;76;26284;-52
2022/05/17 10:45:32;;;;;;;0.33;0.33;;;;;;;;;;1848033;77;26216;-53
2022/05/17 10:47:59;;;;;;;0.40;0.40;;;;;;;;;;1846337;77;26296;-45
2022/05/17 10:50:28;;;;;;;0.60;0.60;;;;;;;;;;1846094;77;26261;-47
2022/05/17 10:53:04;;;;;;;0.40;0.40;;;;;;;;;;1805238;79;26306;-46
2022/05/17 10:55:39;;;;;;;0.30;0.30;;;;;;;;;;1847141;77;27117;-46
2022/05/17 10:58:20;;;;;;;0.33;0.33;;;;;;;;;;1811775;79;26584;-47
2022/05/17 11:00:48;;;;;;;0.40;0.40;;;;;;;;;;1803386;78;26286;-46
2022/05/17 11:03:34;;;;;;;0.30;0.30;;;;;;;;;;1813285;79;26303;-49
2022/05/17 11:06:19;;;;;;;0.40;0.40;;;;;;;;;;1812161;79;26364;-51
2022/05/17 11:08:52;;;;;;;0.50;0.50;;;;;;;;;;1810828;79;26803;-47
2022/05/17 11:11:24;;;;;;;0.40;0.40;;;;;;;;;;1812445;78;26395;-43
2022/05/17 11:13:53;;;;;;;0.40;0.40;;;;;;;;;;1804823;79;26300;-52
2022/05/17 11:16:25;;;;;;;0.40;0.40;;;;;;;;;;1807946;79;26334;-50
2022/05/17 11:18:53;;;;;;;0.40;0.40;;;;;;;;;;1807188;79;26303;-47
2022/05/17 11:21:22;;;;;;;0.40;0.40;;;;;;;;;;1807412;79;26352;-50
2022/05/17 11:23:51;;;;;;;0.30;0.30;;;;;;;;;;1807911;78;26317;-52
2022/05/17 11:26:32;;;;;;;1.15;0.65;;;;;;;;;;1805995;79;26381;-54
2022/05/17 11:29:18;;;;;;;0.40;0.40;;;;;;;;;;1805236;79;26306;-52
2022/05/17 11:31:49;;;;;;;0.40;0.40;;;;;;;;;;1803455;79;26281;-49
2022/05/17 11:34:21;;;;;;;0.30;0.30;;;;;;;;;;1808025;79;26272;-48
2022/05/17 11:36:49;;;;;;;0.35;0.35;;;;;;;;;;1799624;79;26369;-51
2022/05/17 11:39:40;;;;;;;0.30;0.30;;;;;;;;;;1806138;79;26341;-49
2022/05/17 11:42:06;;;;;;;0.40;0.40;;;;;;;;;;1807839;79;26315;-49
2022/05/17 11:44:41;;;;;;;0.45;0.45;;;;;;;;;;1814828;78;26866;-46
2022/05/17 11:47:26;;;;;;;0.50;0.50;;;;;;;;;;1808035;78;26357;-47
2022/05/17 11:49:55;;;;;;;0.40;0.40;;;;;;;;;;1808518;79;26360;-48
2022/05/17 11:52:24;;;;;;;0.50;0.50;;;;;;;;;;1798185;79;26298;-48
2022/05/17 11:54:52;;;;;;;0.30;0.30;;;;;;;;;;1813957;79;26746;-54
2022/05/17 11:57:21;;;;;;;0.40;0.40;;;;;;;;;;1812619;79;26271;-53
2022/05/17 11:59:56;;;;;;;0.40;0.40;;;;;;;;;;1819738;78;26283;-59
2022/05/17 12:02:25;;;;;;;0.42;0.42;;;;;;;;;;1791286;79;26387;-55
2022/05/17 12:04:52;;;;;;;0.30;0.30;;;;;;;;;;1810583;78;26894;-51
2022/05/17 12:07:24;;;;;;;0.35;0.35;;;;;;;;;;1821207;78;26384;-54
2022/05/17 12:09:52;;;;;;;0.30;0.30;;;;;;;;;;1819654;78;26860;-56
2022/05/17 12:12:24;;;;;;;0.30;0.30;;;;;;;;;;1821967;78;26275;-55
2022/05/17 12:14:53;;;;;;;0.30;0.30;;;;;;;;;;1814301;79;26298;-49
2022/05/17 12:17:21;;;;;;;0.40;0.40;;;;;;;;;;1812966;79;26219;-47
2022/05/17 12:20:10;;;;;;;0.37;0.37;;;;;;;;;;1812802;79;26346;-48
2022/05/17 12:22:39;;;;;;;0.50;0.50;;;;;;;;;;1813212;79;26296;-47
2022/05/17 12:25:10;;;;;;;1.10;0.40;;;;;;;;;;1821757;78;26282;-51
2022/05/17 12:27:42;;;;;;;0.57;0.28;;;;;;;;;;1813561;79;26722;-53
2022/05/17 12:33:12;;;;;;;0.40;0.40;;;;;;;;;;1814771;78;26320;-55
2022/05/17 12:35:41;;;;;;;0.40;0.40;;;;;;;;;;1769046;80;26239;-56
2022/05/17 12:43:40;;;;;;;0.20;0.20;;;;;;;;;;1795319;78;26436;-54
2022/05/17 12:46:10;;;;;;;0.20;0.20;;;;;;;;;;1810486;78;26271;-42
2022/05/17 12:48:38;;;;;;;0.20;0.20;;;;;;;;;;1792987;78;26692;-47
2022/05/17 12:51:08;;;;;;;0.20;0.20;;;;;;;;;;1815621;78;27233;-44
2022/05/17 12:53:43;;;;;;;0.30;0.30;;;;;;;;;;1791206;79;26285;-50
2022/05/17 12:56:12;;;;;;;0.30;0.30;;;;;;;;;;1822933;77;26270;-50
2022/05/17 12:58:53;;;;;;;0.40;0.40;;;;;;;;;;1804242;78;26594;-43
2022/05/17 13:01:26;;;;;;;0.20;0.20;;;;;;;;;;1788123;79;26317;-46
2022/05/17 13:03:54;;;;;;;0.30;0.30;;;;;;;;;;1821695;78;26246;-48
2022/05/17 13:06:22;;;;;;;0.30;0.30;;;;;;;;;;1808767;79;26749;-50
2022/05/17 13:08:49;;;;;;;0.20;0.20;;;;;;;;;;1787639;79;26919;-50
2022/05/17 13:11:24;;;;;;;1.07;0.30;;;;;;;;;;1821879;77;26326;-49
2022/05/17 13:13:53;;;;;;;1.95;0.30;;;;;;;;;;1805611;79;27210;-46
2022/05/17 13:16:22;;;;;;;1.65;0.30;;;;;;;;;;1811409;77;26283;-44
2022/05/17 13:18:53;;;;;;;0.20;0.20;;;;;;;;;;1821245;78;26321;-49
2022/05/17 13:21:22;;;;;;;0.78;0.30;;;;;;;;;;1785558;79;26289;-45
2022/05/17 13:23:51;;;;;;;0.30;0.30;;;;;;;;;;1815096;78;26278;-50
2022/05/17 13:26:25;;;;;;;0.85;0.40;;;;;;;;;;1821002;77;26365;-47
2022/05/17 13:28:53;;;;;;;0.20;0.20;;;;;;;;;;1808403;77;26358;-50
2022/05/17 13:31:26;;;;;;;0.30;0.30;;;;;;;;;;1810723;78;28874;-48
2022/05/17 13:34:01;;;;;;;1.35;0.30;;;;;;;;;;1823044;77;26283;-44
2022/05/17 13:36:30;;;;;;;0.30;0.30;;;;;;;;;;1821756;78;26270;-46
2022/05/17 13:38:57;;;;;;;0.20;0.20;;;;;;;;;;1820673;78;26430;-46
2022/05/17 13:41:27;;;;;;;0.80;0.40;;;;;;;;;;1806457;78;26255;-42
2022/05/17 13:43:56;;;;;;;0.20;0.20;;;;;;;;;;1810868;77;26342;-47
2022/05/17 13:46:26;;;;;;;0.30;0.30;;;;;;;;;;1840813;77;26285;-46
2022/05/17 13:48:55;;;;;;;0.20;0.20;;;;;;;;;;1845276;77;26291;-46
2022/05/17 13:51:25;;;;;;;0.30;0.30;;;;;;;;;;1838527;77;26319;-44
2022/05/17 13:53:54;;;;;;;0.28;0.28;;;;;;;;;;1850469;76;26767;-45
2022/05/17 13:56:23;;;;;;;0.20;0.20;;;;;;;;;;1845693;77;26252;-51
2022/05/17 13:58:50;;;;;;;0.33;0.33;;;;;;;;;;1813325;79;26317;-50
2022/05/17 14:01:36;;;;;;;0.17;0.17;;;;;;;;;;1843624;76;27197;-47
2022/05/17 14:04:14;;;;;;;0.30;0.30;;;;;;;;;;1798975;79;26799;-49
2022/05/17 14:06:43;;;;;;;0.20;0.20;;;;;;;;;;1813086;79;26274;-51
2022/05/17 14:11:58;;;;;;;0.13;0.13;;;;;;;;;;1800097;79;26362;-50
2022/05/17 14:14:26;;;;;;;0.70;0.30;;;;;;;;;;1803893;79;26318;-46
2022/05/17 14:16:55;;;;;;;0.20;0.20;;;;;;;;;;1811998;79;26566;-52
2022/05/17 14:19:24;;;;;;;0.20;0.20;;;;;;;;;;1806379;79;26296;-49
2022/05/17 14:21:53;;;;;;;0.20;0.20;;;;;;;;;;1801140;79;26880;-52
2022/05/17 14:24:21;;;;;;;0.10;0.10;;;;;;;;;;1807889;79;26227;-50
2022/05/17 14:26:49;;;;;;;0.57;0.20;;;;;;;;;;1808091;79;26302;-47
2022/05/17 14:29:17;;;;;;;0.20;0.20;;;;;;;;;;1806122;79;26263;-49
2022/05/17 14:31:45;;;;;;;0.20;0.20;;;;;;;;;;1795571;79;26708;-48
2022/05/17 14:34:19;;;;;;;0.10;0.10;;;;;;;;;;1774696;79;26309;-48
2022/05/17 14:36:45;;;;;;;0.20;0.20;;;;;;;;;;1830874;77;26842;-48
2022/05/17 14:39:13;;;;;;;3.20;0.35;;;;;;;;;;1845969;77;25833;-52
2022/05/17 14:41:42;;;;;;;0.57;0.30;;;;;;;;;;1811382;79;26267;-46
2022/05/17 14:44:11;;;;;;;0.20;0.20;;;;;;;;;;1815736;78;26346;-50
2022/05/17 14:46:39;;;;;;;0.20;0.20;;;;;;;;;;1816308;78;26715;-46
2022/05/17 14:49:10;;;;;;;0.10;0.10;;;;;;;;;;1822393;78;26340;-46
2022/05/17 14:51:38;;;;;;;0.20;0.20;;;;;;;;;;1790837;79;26737;-46
2022/05/17 14:54:06;;;;;;;0.88;0.23;;;;;;;;;;1822316;78;26750;-46
2022/05/17 14:56:33;;;;;;;0.20;0.20;;;;;;;;;;1803023;78;26313;-51
2022/05/17 14:59:01;;;;;;;0.20;0.20;;;;;;;;;;1819631;78;26204;-47
2022/05/17 15:01:28;;;;;;;0.20;0.20;;;;;;;;;;1824507;77;26256;-50
2022/05/17 15:03:57;;;;;;;0.30;0.30;;;;;;;;;;1830650;77;26677;-48
2022/05/17 15:06:26;;;;;;;0.40;0.40;;;;;;;;;;1818844;78;26295;-52
2022/05/17 15:08:56;;;;;;;0.30;0.30;;;;;;;;;;1822482;78;26728;-47
2022/05/17 15:11:22;;;;;;;0.28;0.28;;;;;;;;;;1818722;78;26794;-49
2022/05/17 15:13:50;;;;;;;0.20;0.20;;;;;;;;;;1822222;78;26349;-49
2022/05/17 15:16:19;;;;;;;2.62;0.30;;;;;;;;;;1822318;78;26349;-50
2022/05/17 15:18:48;;;;;;;0.55;0.30;;;;;;;;;;1794427;79;26288;-51
2022/05/17 15:21:15;;;;;;;0.98;0.20;;;;;;;;;;1790366;79;26348;-51
2022/05/17 15:23:45;;;;;;;0.30;0.30;;;;;;;;;;1822787;78;26310;-52